Creek Data

    Home     View Charts     View Raw Data     Messages

ID Distance Battery Voltage Battery Current Internal Temp Internal Humidity External Temp Solar Input rssi snr Time Stamp Record
34312 15.3 4.01 0 59 36 56 5.1 -74 7 03/07/2025 10:45 AM 16036
34311 15.3 4.01 0 57 36 55 5.1 -72 8 03/07/2025 10:30 AM 16035
34310 15.3 4.05 5 56 36 54 5.1 -72 8 03/07/2025 10:15 AM 16034
34309 15.3 4.01 0 55 36 54 5.1 -75 8 03/07/2025 10:00 AM 16033
34308 15.3 4.01 0 55 35 53 5.1 -76 8 03/07/2025 09:45 AM 16032
34307 15.4 4.08 5 53 35 53 5.1 -74 8 03/07/2025 09:30 AM 16031
34306 15.4 4.13 5 52 35 52 5.1 -72 8 03/07/2025 09:15 AM 16030
34305 15.4 4.01 0 50 35 51 5.1 -74 8 03/07/2025 09:00 AM 16029
34304 15.3 4.01 5 48 35 50 5.1 -74 8 03/07/2025 08:45 AM 16028
34303 15.3 4.01 0 47 35 50 5.1 -73 8 03/07/2025 08:30 AM 16027
34302 15.2 4.01 5 46 35 49 5.1 -74 7 03/07/2025 08:15 AM 16026
34301 15.2 4.01 0 44 35 47 5.1 -74 8 03/07/2025 08:00 AM 16025
34300 15.1 4.01 0 42 36 46 5.1 -74 8 03/07/2025 07:45 AM 16024
34299 15.1 4.01 5 40 36 44 5.1 -74 7 03/07/2025 07:30 AM 16023
34298 15.2 4.04 10 37 37 40 4.5 -75 8 03/07/2025 07:00 AM 16021
34297 15.2 4.04 7 37 37 39 4.5 -75 7 03/07/2025 06:45 AM 16020
34296 15.1 3.92 -13 36 38 39 4.5 -74 8 03/07/2025 06:30 AM 16019
34295 15.2 3.99 -5 36 38 38 0.8 -75 8 03/07/2025 06:15 AM 16018
34294 15.1 3.99 -5 37 38 39 0.1 -75 8 03/07/2025 06:00 AM 16017
34293 15.1 3.94 -5 38 37 40 0 -74 8 03/07/2025 05:30 AM 16015
34292 15.3 3.94 -5 37 38 40 0 -74 9 03/07/2025 05:15 AM 16014
34291 15.1 3.94 -5 37 38 39 0 -74 8 03/07/2025 05:00 AM 16013
34290 15.2 4.00 -5 37 38 39 0 -74 9 03/07/2025 04:45 AM 16012
34289 15.1 4.00 -5 37 38 39 0 -74 8 03/07/2025 04:30 AM 16011
34288 15.1 4.00 -5 37 38 38 0 -74 8 03/07/2025 04:15 AM 16010